SYL418 UEMT-UEEE
Flight info
| Callsign | SYL418 |
|---|---|
| Flight time | 1h 40m |
| Altitude | 240 |
| Route | G912 GOGNA G912 KURAK B155 UTEDA B155 AGMAT |
| Aircraft | DHC8/L-SDE3FGHIRWY/FAA ADS-B |
Departure
| Time | 2026-04-25 05:47 |
|---|---|
| Airport | Ust-Nera Airport (UEMT) |
Arrival
| Time | 2026-04-25 07:27 |
|---|---|
| Airport | Platon Oyunsky Yakutsk International Airport (UEEE) |
| Time | Latitude | Longitude | Altitude | Speed | Heading |
|---|---|---|---|---|---|
| 2026-04-25 05:12 | 64.55083 | 143.12172 | 1574 ft | 0 kts | 159° |
| 2026-04-25 05:39 | 64.55074 | 143.12160 | 1576 ft | 1 kts | 247° |
| 2026-04-25 05:39 | 64.55072 | 143.12152 | 1576 ft | 0 kts | 255° |
| 2026-04-25 05:40 | 64.55071 | 143.12112 | 1578 ft | 1 kts | 290° |
| 2026-04-25 05:40 | 64.55091 | 143.12074 | 1580 ft | 9 kts | 330° |
| 2026-04-25 05:40 | 64.55108 | 143.11989 | 1585 ft | 2 kts | 256° |
| 2026-04-25 05:41 | 64.55107 | 143.11984 | 1585 ft | 0 kts | 256° |
| 2026-04-25 05:42 | 64.55107 | 143.11980 | 1585 ft | 2 kts | 256° |
| 2026-04-25 05:42 | 64.55096 | 143.11887 | 1589 ft | 6 kts | 253° |
| 2026-04-25 05:43 | 64.55082 | 143.11780 | 1593 ft | 9 kts | 252° |
| 2026-04-25 05:43 | 64.55044 | 143.11546 | 1600 ft | 17 kts | 250° |
| 2026-04-25 05:43 | 64.55003 | 143.11273 | 1607 ft | 18 kts | 252° |
| 2026-04-25 05:43 | 64.54960 | 143.10977 | 1611 ft | 20 kts | 248° |
| 2026-04-25 05:44 | 64.54907 | 143.10663 | 1616 ft | 21 kts | 250° |
| 2026-04-25 05:44 | 64.54863 | 143.10400 | 1620 ft | 9 kts | 247° |
| 2026-04-25 05:44 | 64.54841 | 143.10274 | 1621 ft | 11 kts | 248° |
| 2026-04-25 05:44 | 64.54797 | 143.10008 | 1623 ft | 21 kts | 249° |
| 2026-04-25 05:45 | 64.54744 | 143.09656 | 1621 ft | 24 kts | 249° |
| 2026-04-25 05:45 | 64.54692 | 143.09343 | 1623 ft | 15 kts | 249° |
| 2026-04-25 05:45 | 64.54662 | 143.09122 | 1623 ft | 14 kts | 257° |
| 2026-04-25 05:45 | 64.54645 | 143.09030 | 1622 ft | 4 kts | 166° |
| 2026-04-25 05:46 | 64.54648 | 143.09099 | 1622 ft | 0 kts | 70° |
| 2026-04-25 05:46 | 64.54654 | 143.09142 | 1623 ft | 20 kts | 69° |
| 2026-04-25 05:46 | 64.54811 | 143.10060 | 1623 ft | 95 kts | 68° |
| 2026-04-25 05:46 | 64.55087 | 143.11762 | 1802 ft | 117 kts | 68° |
| 2026-04-25 05:47 | 64.55388 | 143.13559 | 2108 ft | 130 kts | 65° |
| 2026-04-25 05:47 | 64.55772 | 143.15567 | 2470 ft | 139 kts | 67° |
| 2026-04-25 05:47 | 64.56098 | 143.17804 | 2783 ft | 152 kts | 73° |
| 2026-04-25 05:47 | 64.56329 | 143.20262 | 3176 ft | 157 kts | 78° |
| 2026-04-25 05:48 | 64.56447 | 143.22707 | 3725 ft | 153 kts | 83° |
| 2026-04-25 05:48 | 64.56555 | 143.25301 | 4037 ft | 165 kts | 82° |
| 2026-04-25 05:48 | 64.56705 | 143.27920 | 4361 ft | 161 kts | 80° |
| 2026-04-25 05:48 | 64.56833 | 143.30336 | 4680 ft | 145 kts | 83° |
| 2026-04-25 05:49 | 64.56827 | 143.32535 | 4985 ft | 128 kts | 95° |
| 2026-04-25 05:49 | 64.56480 | 143.34407 | 5057 ft | 135 kts | 132° |
| 2026-04-25 05:49 | 64.55765 | 143.35558 | 5519 ft | 124 kts | 154° |
| 2026-04-25 05:49 | 64.54857 | 143.36249 | 5785 ft | 154 kts | 168° |
| 2026-04-25 05:50 | 64.53752 | 143.35741 | 6124 ft | 177 kts | 213° |
| 2026-04-25 05:50 | 64.53028 | 143.33357 | 6434 ft | 196 kts | 257° |
| 2026-04-25 05:50 | 64.52931 | 143.30106 | 6751 ft | 210 kts | 271° |
| 2026-04-25 05:50 | 64.52945 | 143.26579 | 7020 ft | 225 kts | 272° |
| 2026-04-25 05:51 | 64.52969 | 143.22897 | 7283 ft | 236 kts | 272° |
| 2026-04-25 05:51 | 64.52994 | 143.19041 | 7555 ft | 245 kts | 272° |
| 2026-04-25 05:51 | 64.53021 | 143.15006 | 7825 ft | 254 kts | 272° |
| 2026-04-25 05:51 | 64.53045 | 143.10883 | 8087 ft | 259 kts | 273° |
| 2026-04-25 05:52 | 64.53030 | 143.06699 | 8359 ft | 262 kts | 267° |
| 2026-04-25 05:52 | 64.52537 | 143.02631 | 8664 ft | 265 kts | 249° |
| 2026-04-25 05:52 | 64.51753 | 142.98752 | 8998 ft | 266 kts | 245° |
| 2026-04-25 05:52 | 64.50874 | 142.94961 | 9318 ft | 267 kts | 243° |
| 2026-04-25 05:53 | 64.49971 | 142.91235 | 9628 ft | 267 kts | 242° |
| 2026-04-25 05:53 | 64.49063 | 142.87540 | 9933 ft | 263 kts | 242° |
| 2026-04-25 05:53 | 64.48168 | 142.83911 | 10238 ft | 258 kts | 243° |
| 2026-04-25 05:53 | 64.47293 | 142.80373 | 10515 ft | 246 kts | 243° |
| 2026-04-25 05:54 | 64.46454 | 142.76979 | 10827 ft | 244 kts | 243° |
| 2026-04-25 05:54 | 64.45615 | 142.73587 | 11119 ft | 243 kts | 244° |
| 2026-04-25 05:54 | 64.43947 | 142.66855 | 11739 ft | 240 kts | 244° |
| 2026-04-25 05:55 | 64.43119 | 142.63522 | 12040 ft | 239 kts | 244° |
| 2026-04-25 05:55 | 64.42303 | 142.60243 | 12338 ft | 238 kts | 244° |
| 2026-04-25 05:55 | 64.41474 | 142.56918 | 12575 ft | 240 kts | 244° |
| 2026-04-25 05:55 | 64.40640 | 142.53575 | 12706 ft | 244 kts | 244° |
| 2026-04-25 05:56 | 64.39776 | 142.50111 | 12837 ft | 251 kts | 244° |
| 2026-04-25 05:56 | 64.38904 | 142.46626 | 12989 ft | 258 kts | 244° |
| 2026-04-25 05:56 | 64.37986 | 142.42973 | 13131 ft | 262 kts | 244° |
| 2026-04-25 05:56 | 64.37067 | 142.39319 | 13261 ft | 266 kts | 244° |
| 2026-04-25 05:57 | 64.36134 | 142.35617 | 13400 ft | 269 kts | 244° |
| 2026-04-25 05:57 | 64.35191 | 142.31877 | 13533 ft | 272 kts | 244° |
| 2026-04-25 05:57 | 64.34237 | 142.28095 | 13665 ft | 274 kts | 243° |
| 2026-04-25 05:57 | 64.33285 | 142.24330 | 13789 ft | 276 kts | 243° |
| 2026-04-25 05:58 | 64.32316 | 142.20509 | 13911 ft | 277 kts | 243° |
| 2026-04-25 05:58 | 64.31351 | 142.16702 | 14035 ft | 278 kts | 243° |
| 2026-04-25 05:58 | 64.30376 | 142.12868 | 14169 ft | 279 kts | 243° |
| 2026-04-25 05:58 | 64.29391 | 142.08992 | 14293 ft | 280 kts | 243° |
| 2026-04-25 05:59 | 64.28410 | 142.05145 | 14423 ft | 281 kts | 243° |
| 2026-04-25 05:59 | 64.27414 | 142.01248 | 14559 ft | 281 kts | 244° |
| 2026-04-25 05:59 | 64.26436 | 141.97427 | 14689 ft | 282 kts | 244° |
| 2026-04-25 05:59 | 64.25442 | 141.93552 | 14807 ft | 282 kts | 244° |
| 2026-04-25 06:00 | 64.24444 | 141.89664 | 14941 ft | 282 kts | 244° |
| 2026-04-25 06:00 | 64.23444 | 141.85777 | 15078 ft | 282 kts | 244° |
| 2026-04-25 06:00 | 64.22496 | 141.81844 | 15215 ft | 283 kts | 243° |
| 2026-04-25 06:00 | 64.21466 | 141.78020 | 15346 ft | 283 kts | 243° |
| 2026-04-25 06:01 | 64.20449 | 141.74164 | 15473 ft | 283 kts | 243° |
| 2026-04-25 06:01 | 64.19442 | 141.70332 | 15607 ft | 283 kts | 243° |
| 2026-04-25 06:01 | 64.18443 | 141.66515 | 15724 ft | 283 kts | 243° |
| 2026-04-25 06:01 | 64.17432 | 141.62656 | 15853 ft | 283 kts | 243° |
| 2026-04-25 06:02 | 64.16422 | 141.58797 | 15979 ft | 283 kts | 244° |
| 2026-04-25 06:02 | 64.15407 | 141.54921 | 16108 ft | 283 kts | 244° |
| 2026-04-25 06:02 | 64.14406 | 141.51105 | 16243 ft | 283 kts | 244° |
| 2026-04-25 06:02 | 64.13384 | 141.47220 | 16378 ft | 283 kts | 244° |
| 2026-04-25 06:03 | 64.12382 | 141.43416 | 16505 ft | 283 kts | 243° |
| 2026-04-25 06:03 | 64.11373 | 141.39586 | 16644 ft | 282 kts | 244° |
| 2026-04-25 06:03 | 64.10351 | 141.35722 | 16773 ft | 282 kts | 244° |
| 2026-04-25 06:03 | 64.09338 | 141.31894 | 16899 ft | 282 kts | 243° |
| 2026-04-25 06:04 | 64.08328 | 141.28087 | 17023 ft | 282 kts | 243° |
| 2026-04-25 06:04 | 64.07317 | 141.24281 | 17152 ft | 282 kts | 243° |
| 2026-04-25 06:04 | 64.06310 | 141.20496 | 17274 ft | 282 kts | 243° |
| 2026-04-25 06:04 | 64.05297 | 141.16693 | 17402 ft | 281 kts | 243° |
| 2026-04-25 06:05 | 64.04282 | 141.12894 | 17531 ft | 281 kts | 243° |
| 2026-04-25 06:05 | 64.03268 | 141.09103 | 17661 ft | 281 kts | 243° |
| 2026-04-25 06:05 | 64.02245 | 141.05283 | 17793 ft | 281 kts | 243° |
| 2026-04-25 06:05 | 64.01232 | 141.01509 | 17926 ft | 281 kts | 243° |
| 2026-04-25 06:06 | 64.00214 | 140.97728 | 18055 ft | 281 kts | 243° |
| 2026-04-25 06:06 | 63.99202 | 140.93961 | 18188 ft | 280 kts | 243° |
| 2026-04-25 06:06 | 63.98182 | 140.90186 | 18317 ft | 280 kts | 243° |
| 2026-04-25 06:06 | 63.97164 | 140.86418 | 18448 ft | 280 kts | 243° |
| 2026-04-25 06:07 | 63.96145 | 140.82654 | 18576 ft | 280 kts | 243° |
| 2026-04-25 06:07 | 63.95130 | 140.78911 | 18703 ft | 280 kts | 243° |
| 2026-04-25 06:07 | 63.94113 | 140.75165 | 18846 ft | 280 kts | 243° |
| 2026-04-25 06:07 | 63.93088 | 140.71388 | 18970 ft | 280 kts | 243° |
| 2026-04-25 06:08 | 63.92069 | 140.67650 | 19100 ft | 280 kts | 243° |
| 2026-04-25 06:08 | 63.91044 | 140.63892 | 19229 ft | 280 kts | 243° |
| 2026-04-25 06:08 | 63.90022 | 140.60153 | 19365 ft | 280 kts | 243° |
| 2026-04-25 06:08 | 63.88995 | 140.56407 | 19485 ft | 280 kts | 243° |
| 2026-04-25 06:09 | 63.87975 | 140.52690 | 19647 ft | 278 kts | 243° |
| 2026-04-25 06:09 | 63.86967 | 140.49022 | 19816 ft | 276 kts | 243° |
| 2026-04-25 06:09 | 63.85961 | 140.45369 | 19987 ft | 274 kts | 243° |
| 2026-04-25 06:09 | 63.84951 | 140.41711 | 20166 ft | 272 kts | 243° |
| 2026-04-25 06:10 | 63.83959 | 140.38113 | 20339 ft | 271 kts | 243° |
| 2026-04-25 06:10 | 63.82957 | 140.34489 | 20507 ft | 270 kts | 242° |
| 2026-04-25 06:10 | 63.81972 | 140.30928 | 20678 ft | 268 kts | 242° |
| 2026-04-25 06:10 | 63.80978 | 140.27348 | 20851 ft | 268 kts | 242° |
| 2026-04-25 06:11 | 63.79995 | 140.23807 | 21031 ft | 269 kts | 242° |
| 2026-04-25 06:11 | 63.78998 | 140.20221 | 21208 ft | 269 kts | 242° |
| 2026-04-25 06:11 | 63.78012 | 140.16690 | 21379 ft | 269 kts | 242° |
| 2026-04-25 06:11 | 63.77007 | 140.13091 | 21557 ft | 269 kts | 242° |
| 2026-04-25 06:12 | 63.76024 | 140.09576 | 21727 ft | 269 kts | 242° |
| 2026-04-25 06:12 | 63.75027 | 140.06021 | 21908 ft | 268 kts | 242° |
| 2026-04-25 06:12 | 63.74028 | 140.02461 | 22092 ft | 268 kts | 242° |
| 2026-04-25 06:12 | 63.73040 | 139.98936 | 22268 ft | 268 kts | 242° |
| 2026-04-25 06:13 | 63.72042 | 139.95390 | 22451 ft | 268 kts | 242° |
| 2026-04-25 06:13 | 63.71048 | 139.91861 | 22630 ft | 267 kts | 242° |
| 2026-04-25 06:13 | 63.70048 | 139.88316 | 22812 ft | 267 kts | 242° |
| 2026-04-25 06:14 | 63.68065 | 139.81294 | 23181 ft | 266 kts | 242° |
| 2026-04-25 06:14 | 63.67084 | 139.77838 | 23363 ft | 266 kts | 242° |
| 2026-04-25 06:14 | 63.66085 | 139.74326 | 23546 ft | 265 kts | 242° |
| 2026-04-25 06:14 | 63.65099 | 139.70862 | 23729 ft | 265 kts | 242° |
| 2026-04-25 06:15 | 63.64100 | 139.67346 | 23892 ft | 265 kts | 242° |
| 2026-04-25 06:15 | 63.63097 | 139.63826 | 23900 ft | 271 kts | 242° |
| 2026-04-25 06:15 | 63.62092 | 139.60318 | 23889 ft | 268 kts | 241° |
| 2026-04-25 06:15 | 63.61089 | 139.56824 | 23878 ft | 263 kts | 241° |
| 2026-04-25 06:16 | 63.60105 | 139.53389 | 23891 ft | 266 kts | 241° |
| 2026-04-25 06:16 | 63.59084 | 139.49828 | 23905 ft | 277 kts | 241° |
| 2026-04-25 06:16 | 63.58024 | 139.46137 | 23894 ft | 284 kts | 241° |
| 2026-04-25 06:16 | 63.56953 | 139.42423 | 23891 ft | 291 kts | 241° |
| 2026-04-25 06:17 | 63.55848 | 139.38592 | 23883 ft | 296 kts | 241° |
| 2026-04-25 06:17 | 63.54723 | 139.34700 | 23877 ft | 301 kts | 240° |
| 2026-04-25 06:17 | 63.53580 | 139.30751 | 23862 ft | 305 kts | 239° |
| 2026-04-25 06:17 | 63.52420 | 139.26750 | 23852 ft | 308 kts | 239° |
| 2026-04-25 06:18 | 63.51255 | 139.22743 | 23839 ft | 311 kts | 239° |
| 2026-04-25 06:18 | 63.50075 | 139.18692 | 23847 ft | 313 kts | 239° |
| 2026-04-25 06:18 | 63.48884 | 139.14609 | 23857 ft | 314 kts | 239° |
| 2026-04-25 06:18 | 63.47685 | 139.10512 | 23870 ft | 315 kts | 239° |
| 2026-04-25 06:19 | 63.46491 | 139.06429 | 23875 ft | 318 kts | 239° |
| 2026-04-25 06:19 | 63.45276 | 139.02286 | 23883 ft | 320 kts | 239° |
| 2026-04-25 06:19 | 63.44052 | 138.98120 | 23892 ft | 321 kts | 239° |
| 2026-04-25 06:19 | 63.42833 | 138.93979 | 23889 ft | 321 kts | 239° |
| 2026-04-25 06:20 | 63.41608 | 138.89825 | 23887 ft | 321 kts | 239° |
| 2026-04-25 06:20 | 63.40388 | 138.85693 | 23893 ft | 320 kts | 239° |
| 2026-04-25 06:20 | 63.39168 | 138.81570 | 23895 ft | 320 kts | 239° |
| 2026-04-25 06:20 | 63.37951 | 138.77467 | 23895 ft | 320 kts | 239° |
| 2026-04-25 06:21 | 63.36723 | 138.73332 | 23897 ft | 320 kts | 239° |
| 2026-04-25 06:21 | 63.35515 | 138.69273 | 23904 ft | 319 kts | 239° |
| 2026-04-25 06:21 | 63.34292 | 138.65170 | 23913 ft | 319 kts | 239° |
| 2026-04-25 06:21 | 63.33062 | 138.61050 | 23924 ft | 319 kts | 239° |
| 2026-04-25 06:22 | 63.31839 | 138.56963 | 23933 ft | 318 kts | 239° |
| 2026-04-25 06:22 | 63.30621 | 138.52898 | 23944 ft | 318 kts | 238° |
| 2026-04-25 06:22 | 63.29394 | 138.48810 | 23962 ft | 318 kts | 238° |
| 2026-04-25 06:22 | 63.28178 | 138.44768 | 23967 ft | 318 kts | 238° |
| 2026-04-25 06:23 | 63.26951 | 138.40698 | 23966 ft | 318 kts | 238° |
| 2026-04-25 06:23 | 63.25717 | 138.36612 | 23956 ft | 318 kts | 238° |
| 2026-04-25 06:23 | 63.24481 | 138.32523 | 23945 ft | 319 kts | 237° |
| 2026-04-25 06:23 | 63.23263 | 138.28500 | 23936 ft | 319 kts | 237° |
| 2026-04-25 06:24 | 63.22029 | 138.24437 | 23931 ft | 319 kts | 237° |
| 2026-04-25 06:24 | 63.20790 | 138.20358 | 23921 ft | 319 kts | 237° |
| 2026-04-25 06:24 | 63.19554 | 138.16306 | 23916 ft | 319 kts | 237° |
| 2026-04-25 06:24 | 63.18319 | 138.12251 | 23905 ft | 319 kts | 237° |
| 2026-04-25 06:25 | 63.17091 | 138.08231 | 23895 ft | 319 kts | 237° |
| 2026-04-25 06:25 | 63.15843 | 138.04160 | 23888 ft | 319 kts | 237° |
| 2026-04-25 06:25 | 63.14600 | 138.00113 | 23880 ft | 319 kts | 237° |
| 2026-04-25 06:25 | 63.13361 | 137.96085 | 23884 ft | 319 kts | 237° |
| 2026-04-25 06:26 | 63.12123 | 137.92065 | 23894 ft | 318 kts | 237° |
| 2026-04-25 06:26 | 63.10873 | 137.88010 | 23902 ft | 318 kts | 237° |
| 2026-04-25 06:26 | 63.09639 | 137.84015 | 23910 ft | 317 kts | 237° |
| 2026-04-25 06:26 | 63.08405 | 137.80023 | 23918 ft | 317 kts | 237° |
| 2026-04-25 06:27 | 63.07162 | 137.76012 | 23926 ft | 317 kts | 237° |
| 2026-04-25 06:27 | 63.05918 | 137.72009 | 23937 ft | 316 kts | 237° |
| 2026-04-25 06:27 | 63.04678 | 137.68022 | 23935 ft | 316 kts | 237° |
| 2026-04-25 06:27 | 63.03450 | 137.64084 | 23939 ft | 316 kts | 237° |
| 2026-04-25 06:28 | 63.02198 | 137.60074 | 23936 ft | 316 kts | 237° |
| 2026-04-25 06:28 | 63.00957 | 137.56107 | 23939 ft | 316 kts | 237° |
| 2026-04-25 06:28 | 62.99730 | 137.52190 | 23936 ft | 316 kts | 237° |
| 2026-04-25 06:28 | 62.98488 | 137.48233 | 23940 ft | 315 kts | 237° |
| 2026-04-25 06:29 | 62.97242 | 137.44270 | 23943 ft | 315 kts | 237° |
| 2026-04-25 06:29 | 62.95999 | 137.40321 | 23947 ft | 315 kts | 237° |
| 2026-04-25 06:29 | 62.94747 | 137.36357 | 23955 ft | 315 kts | 237° |
| 2026-04-25 06:29 | 62.93519 | 137.32472 | 23961 ft | 315 kts | 236° |
| 2026-04-25 06:30 | 62.92265 | 137.28507 | 23970 ft | 315 kts | 236° |
| 2026-04-25 06:30 | 62.91024 | 137.24597 | 23974 ft | 315 kts | 236° |
| 2026-04-25 06:30 | 62.89780 | 137.20685 | 23982 ft | 314 kts | 236° |
| 2026-04-25 06:30 | 62.88536 | 137.16774 | 23989 ft | 314 kts | 236° |
| 2026-04-25 06:31 | 62.87287 | 137.12854 | 23996 ft | 314 kts | 236° |
| 2026-04-25 06:31 | 62.86042 | 137.08955 | 24004 ft | 313 kts | 236° |
| 2026-04-25 06:31 | 62.84800 | 137.05070 | 24008 ft | 313 kts | 236° |
| 2026-04-25 06:31 | 62.83557 | 137.01192 | 24012 ft | 313 kts | 236° |
| 2026-04-25 06:32 | 62.82308 | 136.97301 | 24013 ft | 313 kts | 236° |
| 2026-04-25 06:32 | 62.81067 | 136.93440 | 24013 ft | 313 kts | 236° |
| 2026-04-25 06:32 | 62.79818 | 136.89563 | 24014 ft | 313 kts | 236° |
| 2026-04-25 06:32 | 62.78579 | 136.85623 | 24007 ft | 312 kts | 241° |
| 2026-04-25 06:33 | 62.77983 | 136.81146 | 24017 ft | 307 kts | 265° |
| 2026-04-25 06:33 | 62.77721 | 136.76604 | 24025 ft | 307 kts | 264° |
| 2026-04-25 06:33 | 62.77417 | 136.71957 | 24020 ft | 308 kts | 263° |
| 2026-04-25 06:33 | 62.77100 | 136.67363 | 24023 ft | 308 kts | 263° |
| 2026-04-25 06:34 | 62.76771 | 136.62767 | 24027 ft | 308 kts | 263° |
| 2026-04-25 06:34 | 62.76434 | 136.58168 | 24030 ft | 309 kts | 262° |
| 2026-04-25 06:34 | 62.76093 | 136.53528 | 24032 ft | 309 kts | 262° |
| 2026-04-25 06:34 | 62.75755 | 136.48970 | 24032 ft | 309 kts | 262° |
| 2026-04-25 06:35 | 62.75408 | 136.44318 | 24034 ft | 309 kts | 262° |
| 2026-04-25 06:35 | 62.75065 | 136.39745 | 24036 ft | 309 kts | 262° |
| 2026-04-25 06:35 | 62.74720 | 136.35156 | 24038 ft | 309 kts | 262° |
| 2026-04-25 06:35 | 62.74372 | 136.30553 | 24040 ft | 309 kts | 261° |
| 2026-04-25 06:36 | 62.74020 | 136.25925 | 24039 ft | 309 kts | 261° |
| 2026-04-25 06:36 | 62.73671 | 136.21350 | 24040 ft | 309 kts | 261° |
| 2026-04-25 06:36 | 62.73317 | 136.16731 | 24043 ft | 309 kts | 261° |
| 2026-04-25 06:36 | 62.72960 | 136.12100 | 24041 ft | 309 kts | 261° |
| 2026-04-25 06:37 | 62.72607 | 136.07530 | 24042 ft | 309 kts | 261° |
| 2026-04-25 06:37 | 62.72249 | 136.02922 | 24046 ft | 309 kts | 261° |
| 2026-04-25 06:37 | 62.71890 | 135.98326 | 24044 ft | 309 kts | 261° |
| 2026-04-25 06:37 | 62.71528 | 135.93703 | 24042 ft | 309 kts | 261° |
| 2026-04-25 06:38 | 62.71169 | 135.89136 | 24038 ft | 309 kts | 261° |
| 2026-04-25 06:38 | 62.70803 | 135.84508 | 24039 ft | 309 kts | 261° |
| 2026-04-25 06:38 | 62.70438 | 135.79925 | 24040 ft | 309 kts | 261° |
| 2026-04-25 06:38 | 62.70071 | 135.75316 | 24042 ft | 309 kts | 261° |
| 2026-04-25 06:39 | 62.69704 | 135.70744 | 24045 ft | 309 kts | 261° |
| 2026-04-25 06:39 | 62.69335 | 135.66145 | 24046 ft | 309 kts | 261° |
| 2026-04-25 06:39 | 62.68967 | 135.61586 | 24048 ft | 308 kts | 261° |
| 2026-04-25 06:39 | 62.68594 | 135.56995 | 24050 ft | 308 kts | 261° |
| 2026-04-25 06:40 | 62.68221 | 135.52411 | 24053 ft | 308 kts | 261° |
| 2026-04-25 06:40 | 62.67847 | 135.47847 | 24052 ft | 308 kts | 261° |
| 2026-04-25 06:40 | 62.67469 | 135.43247 | 24055 ft | 308 kts | 261° |
| 2026-04-25 06:40 | 62.67095 | 135.38704 | 24057 ft | 308 kts | 261° |
| 2026-04-25 06:41 | 62.66716 | 135.34148 | 24057 ft | 308 kts | 259° |
| 2026-04-25 06:41 | 62.66338 | 135.29604 | 24057 ft | 308 kts | 259° |
| 2026-04-25 06:41 | 62.65954 | 135.25018 | 24058 ft | 308 kts | 259° |
| 2026-04-25 06:41 | 62.65570 | 135.20448 | 24062 ft | 308 kts | 259° |
| 2026-04-25 06:42 | 62.65184 | 135.15874 | 24065 ft | 308 kts | 259° |
| 2026-04-25 06:42 | 62.64800 | 135.11339 | 24066 ft | 308 kts | 260° |
| 2026-04-25 06:42 | 62.64411 | 135.06749 | 24070 ft | 308 kts | 259° |
| 2026-04-25 06:42 | 62.64024 | 135.02197 | 24071 ft | 308 kts | 259° |
| 2026-04-25 06:43 | 62.63634 | 134.97639 | 24073 ft | 308 kts | 259° |
| 2026-04-25 06:43 | 62.63245 | 134.93114 | 24072 ft | 308 kts | 259° |
| 2026-04-25 06:43 | 62.62849 | 134.88536 | 24073 ft | 308 kts | 259° |
| 2026-04-25 06:43 | 62.62456 | 134.84003 | 24071 ft | 308 kts | 259° |
| 2026-04-25 06:44 | 62.62058 | 134.79428 | 24068 ft | 308 kts | 259° |
| 2026-04-25 06:44 | 62.61659 | 134.74870 | 24068 ft | 308 kts | 259° |
| 2026-04-25 06:44 | 62.61261 | 134.70343 | 24069 ft | 308 kts | 259° |
| 2026-04-25 06:44 | 62.60860 | 134.65796 | 24065 ft | 308 kts | 259° |
| 2026-04-25 06:45 | 62.60460 | 134.61267 | 24065 ft | 307 kts | 259° |
| 2026-04-25 06:45 | 62.60057 | 134.56735 | 24065 ft | 307 kts | 259° |
| 2026-04-25 06:45 | 62.59653 | 134.52194 | 24064 ft | 307 kts | 259° |
| 2026-04-25 06:45 | 62.59245 | 134.47627 | 24063 ft | 307 kts | 259° |
| 2026-04-25 06:46 | 62.58844 | 134.43112 | 24061 ft | 307 kts | 259° |
| 2026-04-25 06:46 | 62.58447 | 134.38577 | 24062 ft | 307 kts | 259° |
| 2026-04-25 06:46 | 62.58047 | 134.34047 | 24061 ft | 307 kts | 258° |
| 2026-04-25 06:46 | 62.57645 | 134.29511 | 24056 ft | 308 kts | 258° |
| 2026-04-25 06:47 | 62.57243 | 134.24986 | 24048 ft | 308 kts | 258° |
| 2026-04-25 06:47 | 62.56834 | 134.20412 | 24044 ft | 308 kts | 258° |
| 2026-04-25 06:47 | 62.56428 | 134.15883 | 24047 ft | 308 kts | 258° |
| 2026-04-25 06:47 | 62.56019 | 134.11345 | 24045 ft | 308 kts | 258° |
| 2026-04-25 06:48 | 62.55615 | 134.06873 | 24044 ft | 308 kts | 258° |
| 2026-04-25 06:48 | 62.55204 | 134.02348 | 24044 ft | 307 kts | 258° |
| 2026-04-25 06:48 | 62.54790 | 133.97794 | 24046 ft | 307 kts | 258° |
| 2026-04-25 06:48 | 62.54374 | 133.93240 | 24047 ft | 307 kts | 258° |
| 2026-04-25 06:49 | 62.53960 | 133.88731 | 24043 ft | 307 kts | 258° |
| 2026-04-25 06:49 | 62.53546 | 133.84247 | 24049 ft | 307 kts | 258° |
| 2026-04-25 06:49 | 62.53127 | 133.79709 | 24049 ft | 307 kts | 258° |
| 2026-04-25 06:49 | 62.52711 | 133.75220 | 24050 ft | 307 kts | 258° |
| 2026-04-25 06:50 | 62.52291 | 133.70715 | 24050 ft | 307 kts | 258° |
| 2026-04-25 06:50 | 62.51869 | 133.66191 | 24051 ft | 307 kts | 258° |
| 2026-04-25 06:50 | 62.51443 | 133.61656 | 24053 ft | 307 kts | 258° |
| 2026-04-25 06:50 | 62.51020 | 133.57181 | 24055 ft | 307 kts | 258° |
| 2026-04-25 06:51 | 62.50592 | 133.52653 | 24054 ft | 307 kts | 258° |
| 2026-04-25 06:51 | 62.50161 | 133.48112 | 24054 ft | 307 kts | 258° |
| 2026-04-25 06:51 | 62.49733 | 133.43625 | 24059 ft | 307 kts | 259° |
| 2026-04-25 06:51 | 62.49302 | 133.39119 | 24055 ft | 307 kts | 259° |
| 2026-04-25 06:52 | 62.48869 | 133.34611 | 24056 ft | 307 kts | 258° |
| 2026-04-25 06:52 | 62.48439 | 133.30145 | 24057 ft | 306 kts | 258° |
| 2026-04-25 06:52 | 62.48003 | 133.25630 | 24057 ft | 306 kts | 258° |
| 2026-04-25 06:52 | 62.47569 | 133.21158 | 24059 ft | 306 kts | 258° |
| 2026-04-25 06:53 | 62.47131 | 133.16653 | 24059 ft | 306 kts | 258° |
| 2026-04-25 06:53 | 62.46698 | 133.12219 | 24055 ft | 306 kts | 258° |
| 2026-04-25 06:53 | 62.46258 | 133.07736 | 24058 ft | 306 kts | 258° |
| 2026-04-25 06:53 | 62.45814 | 133.03223 | 24058 ft | 306 kts | 258° |
| 2026-04-25 06:54 | 62.45374 | 132.98758 | 24056 ft | 306 kts | 258° |
| 2026-04-25 06:54 | 62.44926 | 132.94257 | 24059 ft | 306 kts | 258° |
| 2026-04-25 06:54 | 62.44482 | 132.89775 | 24054 ft | 306 kts | 258° |
| 2026-04-25 06:54 | 62.44033 | 132.85283 | 24059 ft | 306 kts | 258° |
| 2026-04-25 06:55 | 62.43591 | 132.80850 | 24055 ft | 306 kts | 258° |
| 2026-04-25 06:55 | 62.43142 | 132.76387 | 24054 ft | 306 kts | 258° |
| 2026-04-25 06:55 | 62.42685 | 132.71861 | 24056 ft | 306 kts | 258° |
| 2026-04-25 06:55 | 62.42235 | 132.67415 | 24058 ft | 306 kts | 258° |
| 2026-04-25 06:56 | 62.41778 | 132.62909 | 24055 ft | 307 kts | 258° |
| 2026-04-25 06:56 | 62.41328 | 132.58495 | 24057 ft | 307 kts | 258° |
| 2026-04-25 06:56 | 62.40866 | 132.53987 | 24058 ft | 307 kts | 258° |
| 2026-04-25 06:56 | 62.40409 | 132.49527 | 24054 ft | 307 kts | 258° |
| 2026-04-25 06:57 | 62.39945 | 132.45020 | 24054 ft | 307 kts | 259° |
| 2026-04-25 06:57 | 62.39480 | 132.40532 | 24052 ft | 308 kts | 259° |
| 2026-04-25 06:57 | 62.39018 | 132.36061 | 24050 ft | 308 kts | 259° |
| 2026-04-25 06:57 | 62.38553 | 132.31589 | 24051 ft | 308 kts | 258° |
| 2026-04-25 06:58 | 62.38085 | 132.27101 | 24049 ft | 308 kts | 258° |
| 2026-04-25 06:58 | 62.37616 | 132.22618 | 24049 ft | 308 kts | 257° |
| 2026-04-25 06:58 | 62.37141 | 132.18105 | 24049 ft | 309 kts | 257° |
| 2026-04-25 06:58 | 62.36667 | 132.13614 | 24051 ft | 309 kts | 258° |
| 2026-04-25 06:59 | 62.36197 | 132.09177 | 24051 ft | 308 kts | 258° |
| 2026-04-25 06:59 | 62.35719 | 132.04674 | 24049 ft | 308 kts | 258° |
| 2026-04-25 06:59 | 62.35242 | 132.00186 | 23929 ft | 312 kts | 258° |
| 2026-04-25 06:59 | 62.34757 | 131.95642 | 23635 ft | 309 kts | 258° |
| 2026-04-25 07:00 | 62.34280 | 131.91200 | 23330 ft | 306 kts | 257° |
| 2026-04-25 07:00 | 62.33801 | 131.86736 | 22776 ft | 312 kts | 257° |
| 2026-04-25 07:00 | 62.33309 | 131.82179 | 22227 ft | 316 kts | 257° |
| 2026-04-25 07:00 | 62.32821 | 131.77667 | 21662 ft | 310 kts | 257° |
| 2026-04-25 07:01 | 62.32339 | 131.73230 | 21094 ft | 304 kts | 257° |
| 2026-04-25 07:01 | 62.31862 | 131.68861 | 20526 ft | 299 kts | 257° |
| 2026-04-25 07:01 | 62.31388 | 131.64534 | 19951 ft | 295 kts | 257° |
| 2026-04-25 07:01 | 62.30922 | 131.60289 | 19389 ft | 291 kts | 257° |
| 2026-04-25 07:02 | 62.30462 | 131.56108 | 18821 ft | 288 kts | 257° |
| 2026-04-25 07:02 | 62.30003 | 131.51952 | 18251 ft | 286 kts | 257° |
| 2026-04-25 07:02 | 62.29548 | 131.47845 | 17685 ft | 283 kts | 257° |
| 2026-04-25 07:02 | 62.29092 | 131.43747 | 17135 ft | 286 kts | 257° |
| 2026-04-25 07:03 | 62.28628 | 131.39568 | 16584 ft | 290 kts | 257° |
| 2026-04-25 07:03 | 62.28163 | 131.35396 | 16035 ft | 292 kts | 257° |
| 2026-04-25 07:03 | 62.27688 | 131.31149 | 15476 ft | 294 kts | 256° |
| 2026-04-25 07:03 | 62.27209 | 131.26892 | 14914 ft | 295 kts | 256° |
| 2026-04-25 07:04 | 62.26729 | 131.22623 | 14356 ft | 296 kts | 256° |
| 2026-04-25 07:04 | 62.26244 | 131.18341 | 13795 ft | 296 kts | 256° |
| 2026-04-25 07:04 | 62.25763 | 131.14093 | 13240 ft | 296 kts | 256° |
| 2026-04-25 07:04 | 62.25284 | 131.09878 | 12682 ft | 290 kts | 257° |
| 2026-04-25 07:05 | 62.24812 | 131.05754 | 12108 ft | 281 kts | 257° |
| 2026-04-25 07:05 | 62.24351 | 131.01726 | 11531 ft | 274 kts | 257° |
| 2026-04-25 07:05 | 62.23905 | 130.97844 | 10966 ft | 268 kts | 257° |
| 2026-04-25 07:05 | 62.23468 | 130.94034 | 10395 ft | 264 kts | 257° |
| 2026-04-25 07:06 | 62.23032 | 130.90253 | 9827 ft | 260 kts | 257° |
| 2026-04-25 07:06 | 62.22602 | 130.86539 | 9256 ft | 257 kts | 257° |
| 2026-04-25 07:06 | 62.22178 | 130.82884 | 8692 ft | 254 kts | 257° |
| 2026-04-25 07:06 | 62.21755 | 130.79248 | 8122 ft | 251 kts | 257° |
| 2026-04-25 07:07 | 62.21335 | 130.75662 | 7549 ft | 248 kts | 257° |
| 2026-04-25 07:07 | 62.20918 | 130.72110 | 6978 ft | 246 kts | 257° |
| 2026-04-25 07:07 | 62.20407 | 130.68680 | 6394 ft | 244 kts | 246° |
| 2026-04-25 07:07 | 62.19596 | 130.65549 | 5873 ft | 238 kts | 242° |
| 2026-04-25 07:08 | 62.18840 | 130.62572 | 5754 ft | 217 kts | 243° |
| 2026-04-25 07:08 | 62.18156 | 130.59857 | 5642 ft | 207 kts | 244° |
| 2026-04-25 07:08 | 62.17475 | 130.57123 | 5568 ft | 209 kts | 244° |
| 2026-04-25 07:08 | 62.16786 | 130.54350 | 5499 ft | 211 kts | 244° |
| 2026-04-25 07:09 | 62.16092 | 130.51570 | 5430 ft | 213 kts | 244° |
| 2026-04-25 07:09 | 62.15400 | 130.48801 | 5358 ft | 214 kts | 244° |
| 2026-04-25 07:09 | 62.14690 | 130.45960 | 5280 ft | 215 kts | 244° |
| 2026-04-25 07:09 | 62.13985 | 130.43144 | 5201 ft | 216 kts | 244° |
| 2026-04-25 07:10 | 62.13275 | 130.40312 | 5126 ft | 217 kts | 244° |
| 2026-04-25 07:10 | 62.12569 | 130.37499 | 5054 ft | 217 kts | 244° |
| 2026-04-25 07:10 | 62.11850 | 130.34641 | 4972 ft | 218 kts | 243° |
| 2026-04-25 07:10 | 62.11137 | 130.31807 | 4885 ft | 218 kts | 243° |
| 2026-04-25 07:11 | 62.10418 | 130.28950 | 4804 ft | 218 kts | 243° |
| 2026-04-25 07:11 | 62.09705 | 130.26126 | 4724 ft | 218 kts | 243° |
| 2026-04-25 07:11 | 62.08986 | 130.23280 | 4635 ft | 219 kts | 243° |
| 2026-04-25 07:11 | 62.08261 | 130.20415 | 4549 ft | 219 kts | 243° |
| 2026-04-25 07:12 | 62.07545 | 130.17587 | 4501 ft | 219 kts | 243° |
| 2026-04-25 07:12 | 62.06094 | 130.11870 | 4326 ft | 218 kts | 243° |
| 2026-04-25 07:12 | 62.05376 | 130.09049 | 4250 ft | 218 kts | 243° |
| 2026-04-25 07:13 | 62.04600 | 130.06250 | 4167 ft | 220 kts | 234° |
| 2026-04-25 07:13 | 62.03529 | 130.03969 | 4112 ft | 220 kts | 225° |
| 2026-04-25 07:13 | 62.02452 | 130.01717 | 4014 ft | 213 kts | 226° |
| 2026-04-25 07:13 | 62.01435 | 129.99571 | 3889 ft | 199 kts | 226° |
| 2026-04-25 07:14 | 62.00487 | 129.97556 | 3791 ft | 187 kts | 227° |
| 2026-04-25 07:14 | 61.99597 | 129.95653 | 3686 ft | 175 kts | 227° |
| 2026-04-25 07:14 | 61.98766 | 129.93875 | 3562 ft | 165 kts | 228° |
| 2026-04-25 07:14 | 61.97990 | 129.92212 | 3420 ft | 154 kts | 228° |
| 2026-04-25 07:15 | 61.97268 | 129.90671 | 3333 ft | 140 kts | 227° |
| 2026-04-25 07:15 | 61.96600 | 129.89244 | 3236 ft | 132 kts | 228° |
| 2026-04-25 07:15 | 61.95962 | 129.87872 | 3210 ft | 133 kts | 229° |
| 2026-04-25 07:15 | 61.95298 | 129.86450 | 3150 ft | 138 kts | 228° |
| 2026-04-25 07:16 | 61.94611 | 129.84978 | 3097 ft | 142 kts | 229° |
| 2026-04-25 07:16 | 61.93900 | 129.83462 | 3063 ft | 150 kts | 228° |
| 2026-04-25 07:16 | 61.93164 | 129.81889 | 3035 ft | 151 kts | 227° |
| 2026-04-25 07:16 | 61.92426 | 129.80328 | 3018 ft | 148 kts | 227° |
| 2026-04-25 07:17 | 61.91709 | 129.78803 | 3033 ft | 144 kts | 228° |
| 2026-04-25 07:17 | 61.91012 | 129.77321 | 3041 ft | 143 kts | 227° |
| 2026-04-25 07:17 | 61.90309 | 129.75833 | 3029 ft | 140 kts | 229° |
| 2026-04-25 07:17 | 61.89620 | 129.74367 | 2964 ft | 141 kts | 228° |
| 2026-04-25 07:18 | 61.88921 | 129.72881 | 2887 ft | 143 kts | 228° |
| 2026-04-25 07:18 | 61.88221 | 129.71399 | 2811 ft | 145 kts | 228° |
| 2026-04-25 07:18 | 61.87504 | 129.69879 | 2745 ft | 147 kts | 228° |
| 2026-04-25 07:18 | 61.86900 | 129.68155 | 2667 ft | 145 kts | 256° |
| 2026-04-25 07:19 | 61.86955 | 129.66127 | 2601 ft | 138 kts | 300° |
| 2026-04-25 07:19 | 61.87524 | 129.64479 | 2485 ft | 140 kts | 313° |
| 2026-04-25 07:19 | 61.88115 | 129.62904 | 2439 ft | 134 kts | 312° |
| 2026-04-25 07:19 | 61.88674 | 129.61371 | 2432 ft | 130 kts | 312° |
| 2026-04-25 07:20 | 61.89236 | 129.59831 | 2446 ft | 136 kts | 311° |
| 2026-04-25 07:20 | 61.89824 | 129.58197 | 2404 ft | 143 kts | 311° |
| 2026-04-25 07:20 | 61.90441 | 129.56470 | 2300 ft | 150 kts | 311° |
| 2026-04-25 07:20 | 61.91052 | 129.54738 | 2147 ft | 141 kts | 311° |
| 2026-04-25 07:21 | 61.91598 | 129.53169 | 1943 ft | 124 kts | 311° |
| 2026-04-25 07:21 | 61.92186 | 129.51849 | 1821 ft | 125 kts | 333° |
| 2026-04-25 07:21 | 61.93029 | 129.51689 | 1724 ft | 127 kts | 17° |
| 2026-04-25 07:21 | 61.93795 | 129.52710 | 1596 ft | 132 kts | 35° |
| 2026-04-25 07:22 | 61.94528 | 129.53886 | 1533 ft | 131 kts | 35° |
| 2026-04-25 07:22 | 61.95244 | 129.55032 | 1491 ft | 130 kts | 36° |
| 2026-04-25 07:22 | 61.95978 | 129.56206 | 1393 ft | 132 kts | 36° |
| 2026-04-25 07:22 | 61.96711 | 129.57367 | 1355 ft | 131 kts | 36° |
| 2026-04-25 07:23 | 61.97436 | 129.58530 | 1288 ft | 131 kts | 36° |
| 2026-04-25 07:23 | 61.97997 | 129.59425 | 1245 ft | 130 kts | 36° |
| 2026-04-25 07:23 | 61.98716 | 129.60573 | 1198 ft | 131 kts | 37° |
| 2026-04-25 07:23 | 61.99441 | 129.61737 | 1149 ft | 130 kts | 37° |
| 2026-04-25 07:24 | 62.00115 | 129.62839 | 1160 ft | 114 kts | 36° |
| 2026-04-25 07:24 | 62.00748 | 129.63853 | 1121 ft | 119 kts | 36° |
| 2026-04-25 07:24 | 62.01439 | 129.64957 | 1105 ft | 126 kts | 36° |
| 2026-04-25 07:24 | 62.02153 | 129.66087 | 1063 ft | 130 kts | 37° |
| 2026-04-25 07:25 | 62.02864 | 129.67294 | 965 ft | 128 kts | 38° |
| 2026-04-25 07:25 | 62.03565 | 129.68346 | 915 ft | 123 kts | 35° |
| 2026-04-25 07:25 | 62.04277 | 129.69458 | 971 ft | 131 kts | 35° |
| 2026-04-25 07:25 | 62.04973 | 129.70569 | 936 ft | 119 kts | 38° |
| 2026-04-25 07:26 | 62.05640 | 129.71632 | 881 ft | 128 kts | 35° |
| 2026-04-25 07:26 | 62.06359 | 129.72765 | 844 ft | 128 kts | 36° |
| 2026-04-25 07:26 | 62.07069 | 129.73853 | 648 ft | 126 kts | 38° |
| 2026-04-25 07:26 | 62.07758 | 129.74983 | 446 ft | 122 kts | 39° |
| 2026-04-25 07:27 | 62.08364 | 129.75946 | 302 ft | 93 kts | 39° |
| 2026-04-25 07:27 | 62.08754 | 129.76575 | 299 ft | 44 kts | 36° |
| 2026-04-25 07:27 | 62.08950 | 129.76883 | 299 ft | 31 kts | 36° |
| 2026-04-25 07:27 | 62.09092 | 129.77107 | 296 ft | 11 kts | 35° |
| 2026-04-25 07:28 | 62.09161 | 129.77202 | 295 ft | 10 kts | 111° |
| 2026-04-25 07:28 | 62.09074 | 129.77106 | 297 ft | 23 kts | 223° |
| 2026-04-25 07:28 | 62.08920 | 129.76823 | 298 ft | 34 kts | 214° |
| 2026-04-25 07:28 | 62.08722 | 129.76514 | 299 ft | 35 kts | 217° |
| 2026-04-25 07:29 | 62.08547 | 129.76237 | 299 ft | 19 kts | 217° |
| 2026-04-25 07:29 | 62.08547 | 129.76004 | 300 ft | 20 kts | 310° |
| 2026-04-25 07:29 | 62.08627 | 129.75757 | 302 ft | 21 kts | 302° |
| 2026-04-25 07:29 | 62.08693 | 129.75517 | 302 ft | 16 kts | 289° |
| 2026-04-25 07:30 | 62.08757 | 129.75313 | 305 ft | 17 kts | 350° |
| 2026-04-25 07:30 | 62.08865 | 129.75417 | 305 ft | 17 kts | 29° |
| 2026-04-25 07:30 | 62.08975 | 129.75549 | 304 ft | 18 kts | 29° |
| 2026-04-25 07:30 | 62.09093 | 129.75693 | 302 ft | 20 kts | 29° |
| 2026-04-25 07:31 | 62.09213 | 129.75838 | 302 ft | 19 kts | 30° |
| 2026-04-25 07:31 | 62.09309 | 129.75954 | 302 ft | 0 kts | 30° |
| 2026-04-25 07:31 | 62.09309 | 129.75955 | 302 ft | 0 kts | 30° |
| 2026-04-25 07:34 | 62.09304 | 129.75949 | 302 ft | 2 kts | 30° |
| 2026-04-25 07:34 | 62.09291 | 129.75934 | 302 ft | 2 kts | 30° |
| 2026-04-25 07:35 | 62.09281 | 129.75920 | 302 ft | 1 kts | 27° |
| 2026-04-25 07:35 | 62.09269 | 129.75920 | 302 ft | 1 kts | 327° |
| 2026-04-25 07:35 | 62.09261 | 129.75941 | 302 ft | 2 kts | 296° |
| 2026-04-25 07:35 | 62.09254 | 129.75970 | 302 ft | 2 kts | 299° |
| 2026-04-25 07:36 | 62.09250 | 129.75986 | 302 ft | 0 kts | 300° |